Time;durP1;ratioP1;P1;durP2;ratioP2;P2;SDS_P1;SDS_P2;PMS_P1;PMS_P2;Temp;Humidity;BMP_temperature;BMP_pressure;BME280_temperature;BME280_humidity;BME280_pressure;Samples;Min_cycle;Max_cycle;Signal;HPM_P1;HPM_P2
2024/01/29 20:09:39;;;;;;;;;;;;;;;4.87;65.22;103290.74;105931;1260;61857;-78
2024/01/29 20:12:11;;;;;;;;;;;;;;;4.88;64.76;103293.17;106037;1253;60109;-78
2024/01/29 20:14:46;;;;;;;;;;;;;;;4.86;65.08;103295.71;105935;1253;75020;-77
2024/01/29 20:17:21;;;;;;;;;;;;;;;4.83;65.30;103295.02;106012;1254;70416;-78
2024/01/29 20:20:01;;;;;;;;;;;;;;;4.75;65.33;103298.71;106352;1256;74106;-77
2024/01/29 20:22:41;;;;;;;;;;;;;;;4.71;65.67;103294.21;106132;1260;60611;-77
2024/01/29 20:25:22;;;;;;;;;;;;;;;4.75;65.40;103291.74;106219;1254;61616;-78
2024/01/29 20:28:02;;;;;;;;;;;;;;;4.73;65.41;103285.44;106130;1254;75806;-77
2024/01/29 20:30:43;;;;;;;;;;;;;;;4.73;65.13;103284.27;106234;1253;70646;-78
2024/01/29 20:33:23;;;;;;;;;;;;;;;4.67;65.43;103287.92;106130;1260;75776;-79
2024/01/29 20:36:03;;;;;;;;;;;;;;;4.60;65.96;103286.67;106078;1256;60436;-78
2024/01/29 20:38:43;;;;;;;;;;;;;;;4.57;66.37;103286.30;105964;1261;60958;-79
2024/01/29 20:41:24;;;;;;;;;;;;;;;4.59;66.41;103285.48;106062;1253;74775;-80
2024/01/29 20:44:23;;;;;;;;;;;;;;;4.56;66.84;103285.48;105941;1254;68601;-79
2024/01/29 20:47:03;;;;;;;;;;;;;;;4.50;67.53;103284.54;106035;1256;72796;-79
2024/01/29 20:49:43;;;;;;;;;;;;;;;4.52;67.57;103288.47;106013;1257;61674;-79
2024/01/29 20:52:24;;;;;;;;;;;;;;;4.44;67.99;103288.09;106167;1256;61928;-79
2024/01/29 20:55:04;;;;;;;;;;;;;;;4.53;67.57;103285.35;105773;1255;74253;-79
2024/01/29 20:57:55;;;;;;;;;;;;;;;4.62;67.00;103285.15;106053;1254;70922;-78
2024/01/29 21:00:35;;;;;;;;;;;;;;;4.73;66.35;103279.24;105879;1256;71387;-79
2024/01/29 21:03:15;;;;;;;;;;;;;;;4.79;65.72;103287.10;106086;1256;60565;-79
2024/01/29 21:05:55;;;;;;;;;;;;;;;4.65;65.97;103285.24;106347;1255;60447;-79
2024/01/29 21:08:34;;;;;;;;;;;;;;;4.57;66.22;103282.45;106068;1253;75150;-79
2024/01/29 21:11:15;;;;;;;;;;;;;;;4.46;66.56;103288.23;106357;1256;70785;-79
2024/01/29 21:13:55;;;;;;;;;;;;;;;4.45;66.55;103289.80;106396;1260;74867;-79
2024/01/29 21:16:35;;;;;;;;;;;;;;;4.30;67.08;103293.95;106745;1260;61056;-78
2024/01/29 21:19:15;;;;;;;;;;;;;;;4.33;66.90;103291.27;106390;1255;60775;-78
2024/01/29 21:21:55;;;;;;;;;;;;;;;4.38;66.35;103282.48;106595;1255;73862;-78
2024/01/29 21:24:38;;;;;;;;;;;;;;;4.29;66.45;103285.79;106569;1255;68609;-79
2024/01/29 21:27:17;;;;;;;;;;;;;;;4.20;66.86;103283.31;106537;1259;73753;-79
2024/01/29 21:29:57;;;;;;;;;;;;;;;4.15;66.98;103285.88;106534;1256;60890;-80
2024/01/29 21:32:37;;;;;;;;;;;;;;;4.09;67.28;103289.55;106384;1256;60859;-78
2024/01/29 21:35:16;;;;;;;;;;;;;;;4.14;66.67;103286.15;105979;1254;75312;-79
2024/01/29 21:37:57;;;;;;;;;;;;;;;3.95;67.42;103284.94;105993;1255;71150;-79
2024/01/29 21:40:37;;;;;;;;;;;;;;;3.83;68.12;103286.57;106021;1255;72693;-79
2024/01/29 21:43:16;;;;;;;;;;;;;;;3.77;68.54;103288.27;105883;1254;60388;-79
2024/01/29 21:45:56;;;;;;;;;;;;;;;3.63;69.14;103284.70;106024;1254;60518;-79
2024/01/29 21:48:36;;;;;;;;;;;;;;;3.63;69.20;103291.81;105936;1260;74411;-79
2024/01/29 21:51:16;;;;;;;;;;;;;;;3.75;68.47;103285.25;105989;1258;68704;-79
2024/01/29 21:53:56;;;;;;;;;;;;;;;3.59;68.89;103285.60;105988;1254;71474;-78
2024/01/29 21:56:41;;;;;;;;;;;;;;;3.53;69.25;103285.69;106092;1258;61174;-79
2024/01/29 21:59:21;;;;;;;;;;;;;;;3.46;69.66;103290.02;105934;1255;60339;-79
2024/01/29 22:02:00;;;;;;;;;;;;;;;3.40;69.66;103291.14;106821;1253;72707;-79
2024/01/29 22:04:44;;;;;;;;;;;;;;;3.35;69.96;103291.54;106159;1253;67600;-79
2024/01/29 22:07:24;;;;;;;;;;;;;;;3.31;70.32;103293.95;106321;1258;71406;-79
2024/01/29 22:10:03;;;;;;;;;;;;;;;3.25;70.42;103293.81;106160;1258;60627;-79
2024/01/29 22:12:46;;;;;;;;;;;;;;;3.11;71.78;103293.56;105916;1253;60554;-79
2024/01/29 22:15:26;;;;;;;;;;;;;;;3.19;71.90;103292.15;106682;1253;72612;-79
2024/01/29 22:18:05;;;;;;;;;;;;;;;3.20;71.56;103292.61;106226;1253;67111;-79
2024/01/29 22:20:45;;;;;;;;;;;;;;;3.18;71.41;103297.48;106524;1253;72624;-79
2024/01/29 22:23:25;;;;;;;;;;;;;;;3.24;70.90;103295.70;106336;1253;60574;-79
2024/01/29 22:26:04;;;;;;;;;;;;;;;3.27;70.58;103297.23;106670;1256;60377;-79
2024/01/29 22:28:46;;;;;;;;;;;;;;;3.28;70.62;103298.22;106395;1255;73126;-79
2024/01/29 22:31:26;;;;;;;;;;;;;;;3.17;71.17;103296.43;106701;1254;68425;-79
2024/01/29 22:34:05;;;;;;;;;;;;;;;3.01;72.18;103291.40;106264;1254;74110;-79
2024/01/29 22:36:45;;;;;;;;;;;;;;;3.00;72.49;103290.83;106712;1253;60487;-79
2024/01/29 22:39:25;;;;;;;;;;;;;;;2.97;72.23;103288.41;106830;1258;60339;-79
2024/01/29 22:42:04;;;;;;;;;;;;;;;2.94;72.94;103290.02;106597;1258;73860;-79
2024/01/29 22:44:44;;;;;;;;;;;;;;;2.92;73.06;103292.23;106400;1253;69150;-79
2024/01/29 22:47:23;;;;;;;;;;;;;;;2.94;73.08;103291.17;106700;1253;72696;-79
2024/01/29 22:50:05;;;;;;;;;;;;;;;2.90;72.95;103289.39;106336;1257;60493;-79
2024/01/29 22:52:45;;;;;;;;;;;;;;;2.90;72.88;103288.13;106534;1259;60454;-79
2024/01/29 22:55:25;;;;;;;;;;;;;;;2.94;72.52;103288.08;106372;1254;72583;-79
2024/01/29 22:58:04;;;;;;;;;;;;;;;2.95;72.05;103287.73;106432;1253;66851;-79
2024/01/29 23:00:44;;;;;;;;;;;;;;;2.94;72.44;103289.31;106708;1253;72100;-79
2024/01/29 23:03:29;;;;;;;;;;;;;;;3.15;71.41;103285.01;106693;1254;59235;-79
2024/01/29 23:06:09;;;;;;;;;;;;;;;3.15;70.76;103291.11;106381;1253;60461;-79
2024/01/29 23:08:49;;;;;;;;;;;;;;;3.05;71.25;103295.51;106299;1258;73001;-79
2024/01/29 23:11:28;;;;;;;;;;;;;;;3.04;71.30;103298.02;106719;1253;68772;-78
2024/01/29 23:14:08;;;;;;;;;;;;;;;3.00;71.30;103299.14;106699;1258;72675;-79
2024/01/29 23:16:48;;;;;;;;;;;;;;;2.88;71.92;103296.74;106469;1253;60494;-79
2024/01/29 23:19:28;;;;;;;;;;;;;;;2.86;71.75;103294.48;106374;1254;60643;-79
2024/01/29 23:22:08;;;;;;;;;;;;;;;2.79;72.21;103297.34;106501;1253;72653;-79
2024/01/29 23:24:48;;;;;;;;;;;;;;;2.61;73.47;103299.74;106421;1253;67152;-79
2024/01/29 23:27:27;;;;;;;;;;;;;;;2.51;73.91;103297.34;106346;1254;71412;-79
2024/01/29 23:30:08;;;;;;;;;;;;;;;2.56;73.56;103292.14;106359;1256;60529;-79
2024/01/29 23:32:47;;;;;;;;;;;;;;;2.58;73.36;103295.88;106365;1253;60620;-78
2024/01/29 23:35:29;;;;;;;;;;;;;;;2.48;73.64;103295.86;106697;1253;73928;-79
2024/01/29 23:38:09;;;;;;;;;;;;;;;2.63;73.17;103298.27;106453;1253;67191;-79
2024/01/29 23:40:49;;;;;;;;;;;;;;;2.63;72.79;103295.98;106699;1258;71445;-79
2024/01/29 23:43:28;;;;;;;;;;;;;;;2.57;73.18;103292.36;106536;1258;60583;-79
2024/01/29 23:46:08;;;;;;;;;;;;;;;2.60;72.82;103290.46;106471;1254;60455;-79
2024/01/29 23:48:48;;;;;;;;;;;;;;;2.70;72.32;103293.06;106583;1254;73888;-79
2024/01/29 23:51:28;;;;;;;;;;;;;;;2.73;71.72;103297.13;106563;1258;67097;-79
2024/01/29 23:54:08;;;;;;;;;;;;;;;2.79;71.11;103295.21;106490;1259;72684;-79
2024/01/29 23:56:47;;;;;;;;;;;;;;;2.81;70.89;103293.02;106459;1257;60544;-79
2024/01/29 23:59:27;;;;;;;;;;;;;;;2.80;70.20;103293.61;106369;1257;60343;-79
